KMKT/MKT METAR and TAF weather

Enter ICAO airport designator
Station Type Date Time Source
KMKT METAR 2020/04/09 09:56 UTC NOAA

KMKT 090956Z AUTO 26009KT 10SM FEW065 00/M03 A2989 RMK AO2 SLP132 T00001033 FZRANO


Station Type Date Time Source
KMKT Decoded METAR 2020/04/09 09:56 UTC NOAA

Mankato, Mankato Regional Airport, MN, United States (KMKT) 44-13N 093-55W
Apr 09, 2020 - 05:56 AM EDT / 2020.04.09 0956 UTC
Wind: from the W (260 degrees) at 10 MPH (9 KT):0
Visibility: 10 mile(s):0
Sky conditions: mostly clear
Temperature: 32.0 F (0.0 C)
Windchill: 23 F (-5 C):1
Dew Point: 26.1 F (-3.3 C)
Relative Humidity: 78%
Pressure (altimeter): 29.89 in. Hg (1012 hPa)
ob: KMKT 090956Z AUTO 26009KT 10SM FEW065 00/M03 A2989 RMK AO2 SLP132 T00001033 FZRANO
cycle: 10

Station Type Date Time Source
KMKT TAF 2020/04/09 06:21 UTC NOAA

TAF KMKT 090520Z 0906/1006 31012KT P6SM FEW120
FM091300 31018G30KT P6SM BKN090
FM091500 31020G32KT P6SM SCT040 BKN070 PROB30 0915/0920 6SM -RASN BKN040
FM092000 32022G34KT P6SM BKN050
FM100100 32017G26KT P6SM FEW150

Example: see airport list